Meta, Missouri
Current Conditions -  °F | °C
As of 10:53 AM on Saturday 20 Dec 2014 (Local Time) from KJEF Reporting Station
Overcast Overcast  
Wind Chill:   Ceiling: 2100
Heat Index:   Visibility: 9mi
Dew Point:   Wind: 6mph
Humidity: 83%   Direction: 180°S
Pressure: 30.25"   Gusts: NA
Location:  38.31°N, 92.17°W
Report Text: KJEF 201653Z 18005KT 9SM OVC021 04/02 A3025 RMK AO2 SLP238 T00440017
Loading
Personal Weather Stations






























Interactive Weather Map New forecast layout! Learn more

10-Day Weather Forecast

Advertisements
Track Severe Weather on mobile